Arrey, NM

5:58 AM MST on February 06, 2016 (GMT -0700)
Truth Or Consequences Municipal | | Change Station
CLOSE
Current Station
Airport
Location: Truth Or Consequences,
Elevation: 4859 ft
Nearby Weather Stations

Elev 4859 ft 33.24 °N, 107.27 °W | Updated 5 minutes ago

Clear
Clear
20 °F
Feels Like 12 °F
N
6
Wind Variable Wind from West

Today
High -- | Low -- °F
--% Chance of Precip.
Yesterday
High -- | Low -- °F
Precip. -- in
Pressure 30.48 in
Visibility 10.0 miles
Clouds Clear
Windchill 12 °F
Dew Point 3 °F
Humidity 48%
Rainfall 0.00 in
Snow Depth Not available.
7:01 AM 5:46 PM
Waning Crescent, 6% visible
METAR KTCS 061253Z AUTO 26005KT 10SM CLR M07/M16 A3046 RMK AO2 SLP320 T10671161 TSNO
Pressure 30.48 in
Visibility 10.0 miles
Clouds Clear
Windchill 12 °F
Dew Point 3 °F
Humidity 48%
Rainfall 0.00 in
Snow Depth Not available.
7:01 AM 5:46 PM
Waning Crescent, 6% visible
METAR KTCS 061253Z AUTO 26005KT 10SM CLR M07/M16 A3046 RMK AO2 SLP320 T10671161 TSNO

10-Day Weather Forecast

Almanac

Astronomy

Feb. 06, 2016 Rise Set
Actual Time
Civil Twilight
Nautical Twilight
Astronomical Twilight
Moon
Length of Visible Light
Length of Day
Tomorrow will be .
, % of the Moon is Illuminated

Today's Extremes

State Highs State Lows

Community

WunderPhotos

Upload Photos

1,890,954 photos uploaded!

WunderBlog® & News

Nearby

Air Quality

  Air Quality AQ Index Pollutant
Not available.

Snow Depth

Station Depth Elevation

Earthquake Activity

City Distance Mag. Time & Date
Minimum magnitude displayed is 2.5.

Coastal Water Temperatures

Place Temperature

Stations

Nearby Weather Stations

Station Location Temp. Windchill Dew Point Humidity Wind Precip. Elev Updated Type
                   

Watches & Warnings

There are currently no watches in effect.